sensor_id;sensor_type;location;lat;lon;timestamp;P1;durP1;ratioP1;P2;durP2;ratioP2
17306;SDS011;8771;48.048;7.682;2024-01-16T00:04:48;14.97;;;8.83;;
17306;SDS011;8771;48.048;7.682;2024-01-16T00:09:52;14.13;;;8.70;;
17306;SDS011;8771;48.048;7.682;2024-01-16T00:14:55;14.57;;;8.87;;
17306;SDS011;8771;48.048;7.682;2024-01-16T00:19:58;12.67;;;8.23;;
17306;SDS011;8771;48.048;7.682;2024-01-16T00:25:04;13.00;;;8.17;;
17306;SDS011;8771;48.048;7.682;2024-01-16T00:30:06;9.87;;;7.17;;
17306;SDS011;8771;48.048;7.682;2024-01-16T00:35:09;12.23;;;7.60;;
17306;SDS011;8771;48.048;7.682;2024-01-16T00:40:12;12.70;;;7.73;;
17306;SDS011;8771;48.048;7.682;2024-01-16T00:45:14;12.13;;;7.20;;
17306;SDS011;8771;48.048;7.682;2024-01-16T00:50:17;12.00;;;7.50;;
17306;SDS011;8771;48.048;7.682;2024-01-16T00:55:20;11.43;;;6.97;;
17306;SDS011;8771;48.048;7.682;2024-01-16T01:00:22;11.83;;;7.13;;
17306;SDS011;8771;48.048;7.682;2024-01-16T01:05:24;11.80;;;7.07;;
17306;SDS011;8771;48.048;7.682;2024-01-16T01:10:29;10.10;;;7.17;;
17306;SDS011;8771;48.048;7.682;2024-01-16T01:15:31;11.20;;;7.00;;
17306;SDS011;8771;48.048;7.682;2024-01-16T01:20:34;10.40;;;6.67;;
17306;SDS011;8771;48.048;7.682;2024-01-16T01:25:39;9.33;;;6.63;;
17306;SDS011;8771;48.048;7.682;2024-01-16T01:30:41;11.80;;;6.97;;
17306;SDS011;8771;48.048;7.682;2024-01-16T01:35:44;11.97;;;6.77;;
17306;SDS011;8771;48.048;7.682;2024-01-16T01:40:47;12.57;;;6.90;;
17306;SDS011;8771;48.048;7.682;2024-01-16T01:45:54;10.27;;;6.67;;
17306;SDS011;8771;48.048;7.682;2024-01-16T01:51:11;11.30;;;7.10;;
17306;SDS011;8771;48.048;7.682;2024-01-16T01:56:18;11.83;;;7.57;;
17306;SDS011;8771;48.048;7.682;2024-01-16T02:01:21;11.30;;;7.77;;
17306;SDS011;8771;48.048;7.682;2024-01-16T02:06:26;12.53;;;7.70;;
17306;SDS011;8771;48.048;7.682;2024-01-16T02:11:30;12.47;;;7.60;;
17306;SDS011;8771;48.048;7.682;2024-01-16T02:16:35;13.27;;;8.27;;
17306;SDS011;8771;48.048;7.682;2024-01-16T02:21:39;11.43;;;7.43;;
17306;SDS011;8771;48.048;7.682;2024-01-16T02:26:46;13.07;;;7.80;;
17306;SDS011;8771;48.048;7.682;2024-01-16T02:31:49;10.50;;;7.30;;
17306;SDS011;8771;48.048;7.682;2024-01-16T02:36:52;11.60;;;7.73;;
17306;SDS011;8771;48.048;7.682;2024-01-16T02:41:56;12.63;;;7.63;;
17306;SDS011;8771;48.048;7.682;2024-01-16T02:46:59;11.23;;;7.63;;
17306;SDS011;8771;48.048;7.682;2024-01-16T02:52:02;11.77;;;6.77;;
17306;SDS011;8771;48.048;7.682;2024-01-16T02:57:07;13.50;;;7.40;;
17306;SDS011;8771;48.048;7.682;2024-01-16T03:02:10;10.97;;;7.33;;
17306;SDS011;8771;48.048;7.682;2024-01-16T03:07:13;11.90;;;7.87;;
17306;SDS011;8771;48.048;7.682;2024-01-16T03:12:17;13.00;;;8.30;;
17306;SDS011;8771;48.048;7.682;2024-01-16T03:17:20;12.17;;;7.83;;
17306;SDS011;8771;48.048;7.682;2024-01-16T03:22:23;12.77;;;7.53;;
17306;SDS011;8771;48.048;7.682;2024-01-16T03:27:28;9.90;;;6.60;;
17306;SDS011;8771;48.048;7.682;2024-01-16T03:32:31;11.60;;;7.90;;
17306;SDS011;8771;48.048;7.682;2024-01-16T03:37:33;13.00;;;7.17;;
17306;SDS011;8771;48.048;7.682;2024-01-16T03:42:36;14.43;;;8.37;;
17306;SDS011;8771;48.048;7.682;2024-01-16T03:47:38;16.60;;;8.40;;
17306;SDS011;8771;48.048;7.682;2024-01-16T03:52:41;11.63;;;7.07;;
17306;SDS011;8771;48.048;7.682;2024-01-16T03:57:45;13.47;;;7.63;;
17306;SDS011;8771;48.048;7.682;2024-01-16T04:02:48;11.60;;;6.77;;
17306;SDS011;8771;48.048;7.682;2024-01-16T04:07:51;9.30;;;6.90;;
17306;SDS011;8771;48.048;7.682;2024-01-16T04:12:55;12.10;;;7.40;;
17306;SDS011;8771;48.048;7.682;2024-01-16T04:18:02;10.57;;;7.07;;
17306;SDS011;8771;48.048;7.682;2024-01-16T04:23:05;8.40;;;5.50;;
17306;SDS011;8771;48.048;7.682;2024-01-16T04:28:09;10.20;;;5.53;;
17306;SDS011;8771;48.048;7.682;2024-01-16T04:33:12;9.93;;;6.20;;
17306;SDS011;8771;48.048;7.682;2024-01-16T04:38:15;10.40;;;5.83;;
17306;SDS011;8771;48.048;7.682;2024-01-16T04:43:20;8.87;;;5.80;;
17306;SDS011;8771;48.048;7.682;2024-01-16T04:48:23;6.27;;;4.77;;
17306;SDS011;8771;48.048;7.682;2024-01-16T04:53:25;8.00;;;4.27;;
17306;SDS011;8771;48.048;7.682;2024-01-16T04:58:30;6.17;;;4.27;;
17306;SDS011;8771;48.048;7.682;2024-01-16T05:03:33;6.53;;;4.13;;
17306;SDS011;8771;48.048;7.682;2024-01-16T05:08:36;8.00;;;4.80;;
17306;SDS011;8771;48.048;7.682;2024-01-16T05:13:45;5.77;;;4.00;;
17306;SDS011;8771;48.048;7.682;2024-01-16T05:18:48;7.00;;;4.57;;
17306;SDS011;8771;48.048;7.682;2024-01-16T05:23:50;7.43;;;4.80;;
17306;SDS011;8771;48.048;7.682;2024-01-16T05:28:55;6.97;;;4.50;;
17306;SDS011;8771;48.048;7.682;2024-01-16T05:33:58;11.33;;;5.53;;
17306;SDS011;8771;48.048;7.682;2024-01-16T05:39:01;11.20;;;6.40;;
17306;SDS011;8771;48.048;7.682;2024-01-16T05:44:05;8.37;;;5.30;;
17306;SDS011;8771;48.048;7.682;2024-01-16T05:49:08;9.30;;;4.93;;
17306;SDS011;8771;48.048;7.682;2024-01-16T05:54:11;8.20;;;5.17;;
17306;SDS011;8771;48.048;7.682;2024-01-16T05:59:14;6.83;;;4.73;;
17306;SDS011;8771;48.048;7.682;2024-01-16T06:04:18;7.87;;;5.13;;
17306;SDS011;8771;48.048;7.682;2024-01-16T06:09:20;9.97;;;5.83;;
17306;SDS011;8771;48.048;7.682;2024-01-16T06:14:23;9.97;;;5.93;;
17306;SDS011;8771;48.048;7.682;2024-01-16T06:19:26;9.10;;;5.67;;
17306;SDS011;8771;48.048;7.682;2024-01-16T06:24:29;11.00;;;6.07;;
17306;SDS011;8771;48.048;7.682;2024-01-16T06:29:39;8.80;;;5.77;;
17306;SDS011;8771;48.048;7.682;2024-01-16T06:34:42;9.63;;;5.40;;
17306;SDS011;8771;48.048;7.682;2024-01-16T06:39:45;8.20;;;4.70;;
17306;SDS011;8771;48.048;7.682;2024-01-16T06:44:49;7.90;;;5.37;;
17306;SDS011;8771;48.048;7.682;2024-01-16T06:49:52;10.13;;;5.13;;
17306;SDS011;8771;48.048;7.682;2024-01-16T06:54:55;7.93;;;5.60;;
17306;SDS011;8771;48.048;7.682;2024-01-16T06:59:59;9.57;;;5.90;;
17306;SDS011;8771;48.048;7.682;2024-01-16T07:05:01;8.37;;;5.87;;
17306;SDS011;8771;48.048;7.682;2024-01-16T07:10:06;8.43;;;6.00;;
17306;SDS011;8771;48.048;7.682;2024-01-16T07:15:16;8.80;;;6.10;;
17306;SDS011;8771;48.048;7.682;2024-01-16T07:20:19;11.00;;;6.60;;
17306;SDS011;8771;48.048;7.682;2024-01-16T07:25:25;10.03;;;6.57;;
17306;SDS011;8771;48.048;7.682;2024-01-16T07:30:34;11.03;;;7.10;;
17306;SDS011;8771;48.048;7.682;2024-01-16T07:35:38;22.30;;;14.20;;
17306;SDS011;8771;48.048;7.682;2024-01-16T07:40:42;14.93;;;10.70;;
17306;SDS011;8771;48.048;7.682;2024-01-16T07:45:46;18.17;;;12.20;;
17306;SDS011;8771;48.048;7.682;2024-01-16T07:50:49;15.27;;;10.50;;
17306;SDS011;8771;48.048;7.682;2024-01-16T07:55:51;10.07;;;6.70;;
17306;SDS011;8771;48.048;7.682;2024-01-16T08:00:56;9.10;;;5.00;;
17306;SDS011;8771;48.048;7.682;2024-01-16T08:05:58;7.57;;;5.07;;
17306;SDS011;8771;48.048;7.682;2024-01-16T08:11:00;8.67;;;5.47;;
17306;SDS011;8771;48.048;7.682;2024-01-16T08:16:03;8.70;;;5.07;;
17306;SDS011;8771;48.048;7.682;2024-01-16T08:21:06;6.70;;;5.03;;
17306;SDS011;8771;48.048;7.682;2024-01-16T08:26:08;7.53;;;4.83;;
17306;SDS011;8771;48.048;7.682;2024-01-16T08:31:15;5.90;;;4.20;;
17306;SDS011;8771;48.048;7.682;2024-01-16T08:36:18;9.03;;;4.80;;
17306;SDS011;8771;48.048;7.682;2024-01-16T08:41:20;8.07;;;4.90;;
17306;SDS011;8771;48.048;7.682;2024-01-16T08:46:23;9.80;;;5.60;;
17306;SDS011;8771;48.048;7.682;2024-01-16T08:51:25;11.20;;;6.37;;
17306;SDS011;8771;48.048;7.682;2024-01-16T08:56:27;12.30;;;7.90;;
17306;SDS011;8771;48.048;7.682;2024-01-16T09:01:30;12.03;;;6.50;;
17306;SDS011;8771;48.048;7.682;2024-01-16T09:06:32;8.03;;;5.30;;
17306;SDS011;8771;48.048;7.682;2024-01-16T09:11:34;8.37;;;5.47;;
17306;SDS011;8771;48.048;7.682;2024-01-16T09:16:37;9.13;;;5.73;;
17306;SDS011;8771;48.048;7.682;2024-01-16T09:21:40;10.50;;;6.53;;
17306;SDS011;8771;48.048;7.682;2024-01-16T09:26:42;10.93;;;6.63;;
17306;SDS011;8771;48.048;7.682;2024-01-16T09:31:45;10.40;;;5.93;;
17306;SDS011;8771;48.048;7.682;2024-01-16T09:36:47;7.63;;;5.57;;
17306;SDS011;8771;48.048;7.682;2024-01-16T09:41:49;8.27;;;5.57;;
17306;SDS011;8771;48.048;7.682;2024-01-16T09:46:53;10.50;;;6.53;;
17306;SDS011;8771;48.048;7.682;2024-01-16T09:51:57;12.03;;;7.07;;
17306;SDS011;8771;48.048;7.682;2024-01-16T09:56:59;11.17;;;7.37;;
17306;SDS011;8771;48.048;7.682;2024-01-16T10:02:10;13.43;;;7.47;;
17306;SDS011;8771;48.048;7.682;2024-01-16T10:07:14;10.70;;;7.20;;
17306;SDS011;8771;48.048;7.682;2024-01-16T10:12:17;12.20;;;7.50;;
17306;SDS011;8771;48.048;7.682;2024-01-16T10:17:20;11.50;;;7.67;;
17306;SDS011;8771;48.048;7.682;2024-01-16T10:22:22;9.77;;;7.10;;
17306;SDS011;8771;48.048;7.682;2024-01-16T10:27:26;13.43;;;7.23;;
17306;SDS011;8771;48.048;7.682;2024-01-16T10:32:34;8.37;;;6.37;;
17306;SDS011;8771;48.048;7.682;2024-01-16T10:37:41;8.47;;;6.10;;
17306;SDS011;8771;48.048;7.682;2024-01-16T10:42:44;9.37;;;5.97;;
17306;SDS011;8771;48.048;7.682;2024-01-16T10:47:47;8.83;;;6.27;;
17306;SDS011;8771;48.048;7.682;2024-01-16T10:52:50;10.33;;;6.63;;
17306;SDS011;8771;48.048;7.682;2024-01-16T10:57:55;9.20;;;6.10;;
17306;SDS011;8771;48.048;7.682;2024-01-16T11:03:01;10.07;;;6.80;;
17306;SDS011;8771;48.048;7.682;2024-01-16T11:08:07;9.27;;;6.30;;
17306;SDS011;8771;48.048;7.682;2024-01-16T11:13:13;8.17;;;6.17;;
17306;SDS011;8771;48.048;7.682;2024-01-16T11:18:18;8.77;;;6.17;;
17306;SDS011;8771;48.048;7.682;2024-01-16T11:23:21;8.70;;;6.03;;
17306;SDS011;8771;48.048;7.682;2024-01-16T11:28:26;9.27;;;6.57;;
17306;SDS011;8771;48.048;7.682;2024-01-16T11:33:43;9.17;;;7.07;;
17306;SDS011;8771;48.048;7.682;2024-01-16T11:38:46;8.80;;;6.43;;
17306;SDS011;8771;48.048;7.682;2024-01-16T11:43:48;7.83;;;6.23;;
17306;SDS011;8771;48.048;7.682;2024-01-16T11:49:01;9.10;;;5.97;;
17306;SDS011;8771;48.048;7.682;2024-01-16T11:54:03;11.50;;;6.87;;
17306;SDS011;8771;48.048;7.682;2024-01-16T11:59:14;9.73;;;6.93;;
17306;SDS011;8771;48.048;7.682;2024-01-16T12:04:35;10.10;;;7.03;;
17306;SDS011;8771;48.048;7.682;2024-01-16T12:09:37;9.30;;;6.93;;
17306;SDS011;8771;48.048;7.682;2024-01-16T12:14:39;9.40;;;6.60;;
17306;SDS011;8771;48.048;7.682;2024-01-16T12:19:43;9.93;;;7.00;;
17306;SDS011;8771;48.048;7.682;2024-01-16T12:24:45;9.63;;;6.80;;
17306;SDS011;8771;48.048;7.682;2024-01-16T12:29:47;9.93;;;7.80;;
17306;SDS011;8771;48.048;7.682;2024-01-16T12:34:53;10.07;;;7.23;;
17306;SDS011;8771;48.048;7.682;2024-01-16T12:39:56;9.93;;;7.10;;
17306;SDS011;8771;48.048;7.682;2024-01-16T12:44:58;9.23;;;7.00;;
17306;SDS011;8771;48.048;7.682;2024-01-16T12:50:01;7.93;;;6.67;;
17306;SDS011;8771;48.048;7.682;2024-01-16T12:55:04;8.30;;;6.57;;
17306;SDS011;8771;48.048;7.682;2024-01-16T13:00:21;10.30;;;7.13;;
17306;SDS011;8771;48.048;7.682;2024-01-16T13:05:25;9.57;;;6.50;;
17306;SDS011;8771;48.048;7.682;2024-01-16T13:10:28;8.33;;;6.13;;
17306;SDS011;8771;48.048;7.682;2024-01-16T13:15:32;8.40;;;6.27;;
17306;SDS011;8771;48.048;7.682;2024-01-16T13:20:35;7.33;;;5.93;;
17306;SDS011;8771;48.048;7.682;2024-01-16T13:25:37;7.43;;;5.10;;
17306;SDS011;8771;48.048;7.682;2024-01-16T13:30:39;12.17;;;8.80;;
17306;SDS011;8771;48.048;7.682;2024-01-16T13:35:43;6.33;;;4.90;;
17306;SDS011;8771;48.048;7.682;2024-01-16T13:40:46;5.33;;;4.37;;
17306;SDS011;8771;48.048;7.682;2024-01-16T13:45:50;12.70;;;9.67;;
17306;SDS011;8771;48.048;7.682;2024-01-16T13:50:54;7.60;;;4.37;;
17306;SDS011;8771;48.048;7.682;2024-01-16T13:55:57;7.10;;;4.73;;
17306;SDS011;8771;48.048;7.682;2024-01-16T14:00:59;6.97;;;4.70;;
17306;SDS011;8771;48.048;7.682;2024-01-16T14:06:03;6.90;;;4.17;;
17306;SDS011;8771;48.048;7.682;2024-01-16T14:11:07;6.87;;;4.40;;
17306;SDS011;8771;48.048;7.682;2024-01-16T14:16:09;5.47;;;3.90;;
17306;SDS011;8771;48.048;7.682;2024-01-16T14:21:12;5.43;;;3.97;;
17306;SDS011;8771;48.048;7.682;2024-01-16T14:26:14;6.23;;;4.50;;
17306;SDS011;8771;48.048;7.682;2024-01-16T14:31:16;6.33;;;4.27;;
17306;SDS011;8771;48.048;7.682;2024-01-16T14:36:19;8.37;;;5.10;;
17306;SDS011;8771;48.048;7.682;2024-01-16T14:41:21;8.00;;;4.50;;
17306;SDS011;8771;48.048;7.682;2024-01-16T14:46:23;7.20;;;4.60;;
17306;SDS011;8771;48.048;7.682;2024-01-16T14:51:26;4.03;;;3.13;;
17306;SDS011;8771;48.048;7.682;2024-01-16T14:56:28;5.87;;;3.73;;
17306;SDS011;8771;48.048;7.682;2024-01-16T15:01:30;6.70;;;4.27;;
17306;SDS011;8771;48.048;7.682;2024-01-16T15:06:34;6.10;;;4.57;;
17306;SDS011;8771;48.048;7.682;2024-01-16T15:11:36;7.50;;;4.70;;
17306;SDS011;8771;48.048;7.682;2024-01-16T15:16:38;6.63;;;4.57;;
17306;SDS011;8771;48.048;7.682;2024-01-16T15:21:41;9.57;;;5.13;;
17306;SDS011;8771;48.048;7.682;2024-01-16T15:26:43;6.40;;;4.20;;
17306;SDS011;8771;48.048;7.682;2024-01-16T15:31:45;5.33;;;4.20;;
17306;SDS011;8771;48.048;7.682;2024-01-16T15:36:48;5.00;;;3.87;;
17306;SDS011;8771;48.048;7.682;2024-01-16T15:41:50;7.47;;;4.13;;
17306;SDS011;8771;48.048;7.682;2024-01-16T15:46:56;8.53;;;4.67;;
17306;SDS011;8771;48.048;7.682;2024-01-16T15:52:00;6.90;;;3.87;;
17306;SDS011;8771;48.048;7.682;2024-01-16T15:57:03;10.20;;;4.13;;
17306;SDS011;8771;48.048;7.682;2024-01-16T16:02:05;8.87;;;5.00;;
17306;SDS011;8771;48.048;7.682;2024-01-16T16:07:09;10.30;;;5.87;;
17306;SDS011;8771;48.048;7.682;2024-01-16T16:12:11;15.53;;;6.60;;
17306;SDS011;8771;48.048;7.682;2024-01-16T16:17:13;12.90;;;9.00;;
17306;SDS011;8771;48.048;7.682;2024-01-16T16:22:17;10.43;;;7.60;;
17306;SDS011;8771;48.048;7.682;2024-01-16T16:27:22;7.63;;;5.30;;
17306;SDS011;8771;48.048;7.682;2024-01-16T16:32:25;9.37;;;6.83;;
17306;SDS011;8771;48.048;7.682;2024-01-16T16:37:28;11.43;;;6.60;;
17306;SDS011;8771;48.048;7.682;2024-01-16T16:42:30;9.57;;;6.33;;
17306;SDS011;8771;48.048;7.682;2024-01-16T16:47:32;11.93;;;7.70;;
17306;SDS011;8771;48.048;7.682;2024-01-16T16:52:35;13.23;;;8.13;;
17306;SDS011;8771;48.048;7.682;2024-01-16T16:57:37;16.23;;;8.03;;
17306;SDS011;8771;48.048;7.682;2024-01-16T17:02:39;9.67;;;4.73;;
17306;SDS011;8771;48.048;7.682;2024-01-16T17:07:42;9.03;;;5.87;;
17306;SDS011;8771;48.048;7.682;2024-01-16T17:12:44;15.13;;;6.77;;
17306;SDS011;8771;48.048;7.682;2024-01-16T17:17:46;9.40;;;6.17;;
17306;SDS011;8771;48.048;7.682;2024-01-16T17:22:50;8.20;;;4.80;;
17306;SDS011;8771;48.048;7.682;2024-01-16T17:27:52;9.77;;;5.37;;
17306;SDS011;8771;48.048;7.682;2024-01-16T17:32:54;10.43;;;6.20;;
17306;SDS011;8771;48.048;7.682;2024-01-16T17:37:58;11.40;;;6.47;;
17306;SDS011;8771;48.048;7.682;2024-01-16T17:42:59;9.77;;;5.20;;
17306;SDS011;8771;48.048;7.682;2024-01-16T17:48:02;9.83;;;5.63;;
17306;SDS011;8771;48.048;7.682;2024-01-16T17:53:06;9.67;;;6.13;;
17306;SDS011;8771;48.048;7.682;2024-01-16T17:58:09;14.97;;;9.27;;
17306;SDS011;8771;48.048;7.682;2024-01-16T18:03:12;9.67;;;6.83;;
17306;SDS011;8771;48.048;7.682;2024-01-16T18:08:17;12.27;;;7.47;;
17306;SDS011;8771;48.048;7.682;2024-01-16T18:13:19;11.30;;;7.47;;
17306;SDS011;8771;48.048;7.682;2024-01-16T18:18:23;11.13;;;7.20;;
17306;SDS011;8771;48.048;7.682;2024-01-16T18:23:28;9.83;;;6.43;;
17306;SDS011;8771;48.048;7.682;2024-01-16T18:28:33;10.50;;;6.47;;
17306;SDS011;8771;48.048;7.682;2024-01-16T18:33:35;11.53;;;6.97;;
17306;SDS011;8771;48.048;7.682;2024-01-16T18:38:39;12.33;;;6.70;;
17306;SDS011;8771;48.048;7.682;2024-01-16T18:43:45;9.27;;;6.17;;
17306;SDS011;8771;48.048;7.682;2024-01-16T18:48:47;12.73;;;6.97;;
17306;SDS011;8771;48.048;7.682;2024-01-16T18:53:52;13.17;;;6.50;;
17306;SDS011;8771;48.048;7.682;2024-01-16T18:58:55;11.27;;;7.40;;
17306;SDS011;8771;48.048;7.682;2024-01-16T19:03:57;16.13;;;8.20;;
17306;SDS011;8771;48.048;7.682;2024-01-16T19:09:01;12.23;;;7.33;;
17306;SDS011;8771;48.048;7.682;2024-01-16T19:14:05;11.00;;;6.57;;
17306;SDS011;8771;48.048;7.682;2024-01-16T19:19:08;13.57;;;6.60;;
17306;SDS011;8771;48.048;7.682;2024-01-16T19:24:13;11.83;;;6.67;;
17306;SDS011;8771;48.048;7.682;2024-01-16T19:29:19;12.03;;;7.47;;
17306;SDS011;8771;48.048;7.682;2024-01-16T19:34:22;11.43;;;7.30;;
17306;SDS011;8771;48.048;7.682;2024-01-16T19:39:28;11.17;;;6.90;;
17306;SDS011;8771;48.048;7.682;2024-01-16T19:44:33;15.47;;;8.93;;
17306;SDS011;8771;48.048;7.682;2024-01-16T19:49:36;11.37;;;7.13;;
17306;SDS011;8771;48.048;7.682;2024-01-16T19:54:39;12.30;;;7.50;;
17306;SDS011;8771;48.048;7.682;2024-01-16T19:59:44;16.03;;;9.50;;
17306;SDS011;8771;48.048;7.682;2024-01-16T20:04:46;16.53;;;10.03;;
17306;SDS011;8771;48.048;7.682;2024-01-16T20:09:50;12.03;;;7.40;;
17306;SDS011;8771;48.048;7.682;2024-01-16T20:14:52;15.30;;;7.90;;
17306;SDS011;8771;48.048;7.682;2024-01-16T20:19:55;10.90;;;7.70;;
17306;SDS011;8771;48.048;7.682;2024-01-16T20:24:59;13.90;;;6.80;;
17306;SDS011;8771;48.048;7.682;2024-01-16T20:30:02;11.00;;;6.97;;
17306;SDS011;8771;48.048;7.682;2024-01-16T20:35:06;12.57;;;8.23;;
17306;SDS011;8771;48.048;7.682;2024-01-16T20:40:11;16.30;;;9.70;;
17306;SDS011;8771;48.048;7.682;2024-01-16T20:45:14;14.20;;;10.27;;
17306;SDS011;8771;48.048;7.682;2024-01-16T20:50:17;17.17;;;9.77;;
17306;SDS011;8771;48.048;7.682;2024-01-16T20:55:21;12.90;;;8.83;;
17306;SDS011;8771;48.048;7.682;2024-01-16T21:00:25;12.37;;;8.47;;
17306;SDS011;8771;48.048;7.682;2024-01-16T21:05:34;10.77;;;7.53;;
17306;SDS011;8771;48.048;7.682;2024-01-16T21:10:39;10.77;;;7.73;;
17306;SDS011;8771;48.048;7.682;2024-01-16T21:15:42;16.77;;;8.60;;
17306;SDS011;8771;48.048;7.682;2024-01-16T21:20:47;14.90;;;9.50;;
17306;SDS011;8771;48.048;7.682;2024-01-16T21:25:50;13.20;;;9.00;;
17306;SDS011;8771;48.048;7.682;2024-01-16T21:30:52;14.67;;;8.67;;
17306;SDS011;8771;48.048;7.682;2024-01-16T21:35:56;13.03;;;7.90;;
17306;SDS011;8771;48.048;7.682;2024-01-16T21:41:00;18.60;;;10.07;;
17306;SDS011;8771;48.048;7.682;2024-01-16T21:46:04;13.50;;;9.00;;
17306;SDS011;8771;48.048;7.682;2024-01-16T21:51:07;18.03;;;11.30;;
17306;SDS011;8771;48.048;7.682;2024-01-16T21:56:11;16.27;;;9.77;;
17306;SDS011;8771;48.048;7.682;2024-01-16T22:01:14;14.27;;;10.47;;
17306;SDS011;8771;48.048;7.682;2024-01-16T22:06:17;17.80;;;11.10;;
17306;SDS011;8771;48.048;7.682;2024-01-16T22:11:22;18.07;;;11.90;;
17306;SDS011;8771;48.048;7.682;2024-01-16T22:16:25;19.87;;;11.73;;
17306;SDS011;8771;48.048;7.682;2024-01-16T22:21:28;17.87;;;11.27;;
17306;SDS011;8771;48.048;7.682;2024-01-16T22:26:33;13.60;;;9.83;;
17306;SDS011;8771;48.048;7.682;2024-01-16T22:31:39;15.47;;;9.70;;
17306;SDS011;8771;48.048;7.682;2024-01-16T22:36:43;16.67;;;10.60;;
17306;SDS011;8771;48.048;7.682;2024-01-16T22:41:47;18.37;;;10.20;;
17306;SDS011;8771;48.048;7.682;2024-01-16T22:46:50;15.17;;;10.80;;
17306;SDS011;8771;48.048;7.682;2024-01-16T22:51:55;16.53;;;10.53;;
17306;SDS011;8771;48.048;7.682;2024-01-16T22:56:59;16.60;;;10.60;;
17306;SDS011;8771;48.048;7.682;2024-01-16T23:02:03;16.13;;;10.40;;
17306;SDS011;8771;48.048;7.682;2024-01-16T23:07:07;16.03;;;10.07;;
17306;SDS011;8771;48.048;7.682;2024-01-16T23:12:11;18.00;;;10.93;;
17306;SDS011;8771;48.048;7.682;2024-01-16T23:17:14;19.67;;;10.67;;
17306;SDS011;8771;48.048;7.682;2024-01-16T23:22:18;14.77;;;9.77;;
17306;SDS011;8771;48.048;7.682;2024-01-16T23:27:22;14.77;;;10.13;;
17306;SDS011;8771;48.048;7.682;2024-01-16T23:32:25;13.63;;;8.60;;
17306;SDS011;8771;48.048;7.682;2024-01-16T23:37:28;15.67;;;8.40;;
17306;SDS011;8771;48.048;7.682;2024-01-16T23:42:33;13.80;;;7.80;;
17306;SDS011;8771;48.048;7.682;2024-01-16T23:47:38;13.10;;;7.83;;
17306;SDS011;8771;48.048;7.682;2024-01-16T23:52:42;11.60;;;6.80;;
17306;SDS011;8771;48.048;7.682;2024-01-16T23:57:47;10.27;;;7.10;;
